Manning, Canada
Current Conditions -  °F | °C
As of 6:00 AM on Thursday 30 Oct 2014 (Local Time) from CYPE Reporting Station
Haze Haze  
Wind Chill: 30°   Ceiling: Unl
Heat Index: 30°   Visibility: 4mi
Dew Point: 28°   Wind: 3mph
Humidity: 93%   Direction: 90°E
Pressure: 30.08"   Gusts: NA
Location:  56.92°N, 117.61°W
Report Text: CYPE 301200Z 09003KT 4SM BR FEW010 M01/M02 A3008 RMK SC1 SLP217
Loading
Personal Weather Stations






























Interactive Weather Map
Tropical Storm Tracking
New forecast layout! Learn more

10-Day Weather Forecast

Advertisements
Track Severe Weather on mobile